sensor_id;sensor_type;location;lat;lon;timestamp;temperature;humidity
32787;DHT22;19139;49.372;8.580;2023-07-16T00:00:21;26.50;90.90
32787;DHT22;19139;49.372;8.580;2023-07-16T00:02:48;26.50;91.00
32787;DHT22;19139;49.372;8.580;2023-07-16T00:05:15;26.50;90.90
32787;DHT22;19139;49.372;8.580;2023-07-16T00:07:42;26.50;90.90
32787;DHT22;19139;49.372;8.580;2023-07-16T00:10:09;26.50;90.90
32787;DHT22;19139;49.372;8.580;2023-07-16T00:12:36;26.50;90.90
32787;DHT22;19139;49.372;8.580;2023-07-16T00:15:05;26.50;90.90
32787;DHT22;19139;49.372;8.580;2023-07-16T00:17:35;26.50;90.90
32787;DHT22;19139;49.372;8.580;2023-07-16T00:20:03;26.50;90.90
32787;DHT22;19139;49.372;8.580;2023-07-16T00:22:30;26.50;90.90
32787;DHT22;19139;49.372;8.580;2023-07-16T00:24:57;26.50;90.90
32787;DHT22;19139;49.372;8.580;2023-07-16T00:27:24;26.50;90.80
32787;DHT22;19139;49.372;8.580;2023-07-16T00:29:50;26.50;90.80
32787;DHT22;19139;49.372;8.580;2023-07-16T00:32:17;26.50;90.80
32787;DHT22;19139;49.372;8.580;2023-07-16T00:34:44;26.50;90.80
32787;DHT22;19139;49.372;8.580;2023-07-16T00:37:11;26.40;90.80
32787;DHT22;19139;49.372;8.580;2023-07-16T00:39:37;26.50;90.80
32787;DHT22;19139;49.372;8.580;2023-07-16T00:42:04;26.50;90.80
32787;DHT22;19139;49.372;8.580;2023-07-16T00:44:31;26.50;90.70
32787;DHT22;19139;49.372;8.580;2023-07-16T00:46:57;26.50;90.90
32787;DHT22;19139;49.372;8.580;2023-07-16T00:49:24;26.50;90.70
32787;DHT22;19139;49.372;8.580;2023-07-16T00:51:52;26.50;90.70
32787;DHT22;19139;49.372;8.580;2023-07-16T00:54:19;26.50;90.70
32787;DHT22;19139;49.372;8.580;2023-07-16T00:56:46;26.50;90.70
32787;DHT22;19139;49.372;8.580;2023-07-16T00:59:13;26.50;90.70
32787;DHT22;19139;49.372;8.580;2023-07-16T01:01:40;26.50;90.70
32787;DHT22;19139;49.372;8.580;2023-07-16T01:04:07;26.50;90.70
32787;DHT22;19139;49.372;8.580;2023-07-16T01:06:38;26.50;90.70
32787;DHT22;19139;49.372;8.580;2023-07-16T01:09:15;26.50;90.70
32787;DHT22;19139;49.372;8.580;2023-07-16T01:11:46;26.50;90.70
32787;DHT22;19139;49.372;8.580;2023-07-16T01:14:14;26.50;90.70
32787;DHT22;19139;49.372;8.580;2023-07-16T01:16:42;26.50;90.70
32787;DHT22;19139;49.372;8.580;2023-07-16T01:19:10;26.50;90.70
32787;DHT22;19139;49.372;8.580;2023-07-16T01:21:51;26.50;90.70
32787;DHT22;19139;49.372;8.580;2023-07-16T01:27:30;26.50;90.70
32787;DHT22;19139;49.372;8.580;2023-07-16T01:30:04;26.50;90.70
32787;DHT22;19139;49.372;8.580;2023-07-16T01:32:31;26.50;90.70
32787;DHT22;19139;49.372;8.580;2023-07-16T01:34:59;26.50;90.70
32787;DHT22;19139;49.372;8.580;2023-07-16T01:37:26;26.50;90.70
32787;DHT22;19139;49.372;8.580;2023-07-16T01:39:53;26.50;90.60
32787;DHT22;19139;49.372;8.580;2023-07-16T01:42:20;26.50;90.70
32787;DHT22;19139;49.372;8.580;2023-07-16T01:44:47;26.50;90.60
32787;DHT22;19139;49.372;8.580;2023-07-16T01:47:23;26.50;90.60
32787;DHT22;19139;49.372;8.580;2023-07-16T01:49:50;26.50;90.60
32787;DHT22;19139;49.372;8.580;2023-07-16T01:52:17;26.50;90.70
32787;DHT22;19139;49.372;8.580;2023-07-16T01:54:44;26.50;90.60
32787;DHT22;19139;49.372;8.580;2023-07-16T01:57:10;26.50;90.60
32787;DHT22;19139;49.372;8.580;2023-07-16T01:59:37;26.50;90.60
32787;DHT22;19139;49.372;8.580;2023-07-16T02:02:04;26.50;90.60
32787;DHT22;19139;49.372;8.580;2023-07-16T02:04:31;26.50;90.60
32787;DHT22;19139;49.372;8.580;2023-07-16T02:06:58;26.50;90.60
32787;DHT22;19139;49.372;8.580;2023-07-16T02:09:24;26.50;90.60
32787;DHT22;19139;49.372;8.580;2023-07-16T02:11:52;26.40;90.50
32787;DHT22;19139;49.372;8.580;2023-07-16T02:14:18;26.50;90.60
32787;DHT22;19139;49.372;8.580;2023-07-16T02:16:45;26.50;90.60
32787;DHT22;19139;49.372;8.580;2023-07-16T02:19:12;26.40;90.90
32787;DHT22;19139;49.372;8.580;2023-07-16T02:21:38;26.50;90.60
32787;DHT22;19139;49.372;8.580;2023-07-16T02:24:05;26.50;90.60
32787;DHT22;19139;49.372;8.580;2023-07-16T02:26:32;26.50;90.60
32787;DHT22;19139;49.372;8.580;2023-07-16T02:28:58;26.50;90.60
32787;DHT22;19139;49.372;8.580;2023-07-16T02:31:26;26.50;90.60
32787;DHT22;19139;49.372;8.580;2023-07-16T02:33:53;26.50;90.50
32787;DHT22;19139;49.372;8.580;2023-07-16T02:36:20;26.50;90.60
32787;DHT22;19139;49.372;8.580;2023-07-16T02:38:46;26.50;90.50
32787;DHT22;19139;49.372;8.580;2023-07-16T02:41:13;26.50;90.60
32787;DHT22;19139;49.372;8.580;2023-07-16T02:43:40;26.50;90.50
32787;DHT22;19139;49.372;8.580;2023-07-16T02:46:06;26.50;90.50
32787;DHT22;19139;49.372;8.580;2023-07-16T02:48:33;26.50;90.50
32787;DHT22;19139;49.372;8.580;2023-07-16T02:51:00;26.50;90.50
32787;DHT22;19139;49.372;8.580;2023-07-16T02:53:26;26.50;90.50
32787;DHT22;19139;49.372;8.580;2023-07-16T02:55:53;26.40;90.50
32787;DHT22;19139;49.372;8.580;2023-07-16T02:58:19;26.50;90.50
32787;DHT22;19139;49.372;8.580;2023-07-16T03:00:46;26.50;90.50
32787;DHT22;19139;49.372;8.580;2023-07-16T03:03:13;26.50;90.50
32787;DHT22;19139;49.372;8.580;2023-07-16T03:05:40;26.50;90.50
32787;DHT22;19139;49.372;8.580;2023-07-16T03:08:06;26.40;90.50
32787;DHT22;19139;49.372;8.580;2023-07-16T03:10:33;26.50;90.50
32787;DHT22;19139;49.372;8.580;2023-07-16T03:13:00;26.50;90.50
32787;DHT22;19139;49.372;8.580;2023-07-16T03:15:26;26.40;90.40
32787;DHT22;19139;49.372;8.580;2023-07-16T03:17:53;26.50;90.40
32787;DHT22;19139;49.372;8.580;2023-07-16T03:20:20;26.40;90.40
32787;DHT22;19139;49.372;8.580;2023-07-16T03:22:46;26.40;90.40
32787;DHT22;19139;49.372;8.580;2023-07-16T03:25:13;26.40;90.40
32787;DHT22;19139;49.372;8.580;2023-07-16T03:27:40;26.50;90.40
32787;DHT22;19139;49.372;8.580;2023-07-16T03:30:07;26.50;90.40
32787;DHT22;19139;49.372;8.580;2023-07-16T03:32:34;26.40;90.40
32787;DHT22;19139;49.372;8.580;2023-07-16T03:35:18;26.40;90.40
32787;DHT22;19139;49.372;8.580;2023-07-16T03:37:44;26.40;90.40
32787;DHT22;19139;49.372;8.580;2023-07-16T03:40:16;26.40;90.40
32787;DHT22;19139;49.372;8.580;2023-07-16T03:42:43;26.40;90.40
32787;DHT22;19139;49.372;8.580;2023-07-16T03:45:11;26.40;90.30
32787;DHT22;19139;49.372;8.580;2023-07-16T03:47:38;26.50;90.40
32787;DHT22;19139;49.372;8.580;2023-07-16T03:50:05;26.50;90.40
32787;DHT22;19139;49.372;8.580;2023-07-16T03:52:32;26.40;90.30
32787;DHT22;19139;49.372;8.580;2023-07-16T03:54:59;26.40;90.30
32787;DHT22;19139;49.372;8.580;2023-07-16T03:57:28;26.40;90.30
32787;DHT22;19139;49.372;8.580;2023-07-16T03:59:55;26.40;90.30
32787;DHT22;19139;49.372;8.580;2023-07-16T04:02:22;26.40;90.30
32787;DHT22;19139;49.372;8.580;2023-07-16T04:04:49;26.40;90.30
32787;DHT22;19139;49.372;8.580;2023-07-16T04:07:17;26.40;90.30
32787;DHT22;19139;49.372;8.580;2023-07-16T04:09:44;26.40;90.30
32787;DHT22;19139;49.372;8.580;2023-07-16T04:12:11;26.40;90.30
32787;DHT22;19139;49.372;8.580;2023-07-16T04:14:37;26.40;90.30
32787;DHT22;19139;49.372;8.580;2023-07-16T04:17:04;26.40;90.20
32787;DHT22;19139;49.372;8.580;2023-07-16T04:19:31;26.40;90.20
32787;DHT22;19139;49.372;8.580;2023-07-16T04:21:58;26.40;90.20
32787;DHT22;19139;49.372;8.580;2023-07-16T04:24:25;26.40;90.20
32787;DHT22;19139;49.372;8.580;2023-07-16T04:26:53;26.40;90.20
32787;DHT22;19139;49.372;8.580;2023-07-16T04:29:20;26.40;90.20
32787;DHT22;19139;49.372;8.580;2023-07-16T04:31:47;26.40;90.20
32787;DHT22;19139;49.372;8.580;2023-07-16T04:34:14;26.40;90.20
32787;DHT22;19139;49.372;8.580;2023-07-16T04:36:42;26.40;90.20
32787;DHT22;19139;49.372;8.580;2023-07-16T04:39:09;26.40;90.20
32787;DHT22;19139;49.372;8.580;2023-07-16T04:41:36;26.40;90.20
32787;DHT22;19139;49.372;8.580;2023-07-16T04:44:04;26.50;90.20
32787;DHT22;19139;49.372;8.580;2023-07-16T04:46:31;26.40;90.20
32787;DHT22;19139;49.372;8.580;2023-07-16T04:48:58;26.40;90.20
32787;DHT22;19139;49.372;8.580;2023-07-16T04:51:25;26.50;90.20
32787;DHT22;19139;49.372;8.580;2023-07-16T04:53:51;26.40;90.10
32787;DHT22;19139;49.372;8.580;2023-07-16T04:56:18;26.40;90.10
32787;DHT22;19139;49.372;8.580;2023-07-16T04:58:45;26.40;90.10
32787;DHT22;19139;49.372;8.580;2023-07-16T05:01:12;26.50;90.20
32787;DHT22;19139;49.372;8.580;2023-07-16T05:03:39;26.40;90.10
32787;DHT22;19139;49.372;8.580;2023-07-16T05:06:06;26.40;90.10
32787;DHT22;19139;49.372;8.580;2023-07-16T05:08:32;26.40;90.10
32787;DHT22;19139;49.372;8.580;2023-07-16T05:10:59;26.40;90.10
32787;DHT22;19139;49.372;8.580;2023-07-16T05:13:26;26.40;90.10
32787;DHT22;19139;49.372;8.580;2023-07-16T05:15:53;26.40;90.10
32787;DHT22;19139;49.372;8.580;2023-07-16T05:18:20;26.40;90.10
32787;DHT22;19139;49.372;8.580;2023-07-16T05:20:48;26.40;90.00
32787;DHT22;19139;49.372;8.580;2023-07-16T05:23:15;26.40;90.00
32787;DHT22;19139;49.372;8.580;2023-07-16T05:25:46;26.40;90.00
32787;DHT22;19139;49.372;8.580;2023-07-16T05:28:15;26.40;90.00
32787;DHT22;19139;49.372;8.580;2023-07-16T05:30:42;26.50;90.10
32787;DHT22;19139;49.372;8.580;2023-07-16T05:33:10;26.40;90.00
32787;DHT22;19139;49.372;8.580;2023-07-16T05:35:39;26.50;90.10
32787;DHT22;19139;49.372;8.580;2023-07-16T05:38:06;26.40;90.00
32787;DHT22;19139;49.372;8.580;2023-07-16T05:40:32;26.40;90.00
32787;DHT22;19139;49.372;8.580;2023-07-16T05:42:59;26.40;90.00
32787;DHT22;19139;49.372;8.580;2023-07-16T05:45:26;26.40;90.00
32787;DHT22;19139;49.372;8.580;2023-07-16T05:47:52;26.40;90.00
32787;DHT22;19139;49.372;8.580;2023-07-16T05:50:19;26.50;90.00
32787;DHT22;19139;49.372;8.580;2023-07-16T05:52:46;26.40;90.00
32787;DHT22;19139;49.372;8.580;2023-07-16T05:55:14;26.50;90.00
32787;DHT22;19139;49.372;8.580;2023-07-16T05:57:41;26.40;90.00
32787;DHT22;19139;49.372;8.580;2023-07-16T06:00:09;26.40;90.00
32787;DHT22;19139;49.372;8.580;2023-07-16T06:02:36;26.40;90.00
32787;DHT22;19139;49.372;8.580;2023-07-16T06:05:03;26.50;90.00
32787;DHT22;19139;49.372;8.580;2023-07-16T06:07:29;26.40;90.00
32787;DHT22;19139;49.372;8.580;2023-07-16T06:09:58;26.40;89.90
32787;DHT22;19139;49.372;8.580;2023-07-16T06:12:25;26.40;90.00
32787;DHT22;19139;49.372;8.580;2023-07-16T06:14:51;26.40;89.90
32787;DHT22;19139;49.372;8.580;2023-07-16T06:17:18;26.50;90.00
32787;DHT22;19139;49.372;8.580;2023-07-16T06:19:45;26.40;90.20
32787;DHT22;19139;49.372;8.580;2023-07-16T06:22:14;26.40;89.90
32787;DHT22;19139;49.372;8.580;2023-07-16T06:24:41;26.50;89.90
32787;DHT22;19139;49.372;8.580;2023-07-16T06:27:08;26.40;89.80
32787;DHT22;19139;49.372;8.580;2023-07-16T06:29:34;25.90;89.20
32787;DHT22;19139;49.372;8.580;2023-07-16T06:32:01;25.20;90.20
32787;DHT22;19139;49.372;8.580;2023-07-16T06:34:29;24.60;90.80
32787;DHT22;19139;49.372;8.580;2023-07-16T06:36:56;24.10;91.70
32787;DHT22;19139;49.372;8.580;2023-07-16T06:39:23;23.90;92.10
32787;DHT22;19139;49.372;8.580;2023-07-16T06:41:50;23.60;92.30
32787;DHT22;19139;49.372;8.580;2023-07-16T06:44:16;23.40;92.70
32787;DHT22;19139;49.372;8.580;2023-07-16T06:46:43;23.30;92.90
32787;DHT22;19139;49.372;8.580;2023-07-16T06:49:10;23.10;93.10
32787;DHT22;19139;49.372;8.580;2023-07-16T06:51:36;23.00;93.20
32787;DHT22;19139;49.372;8.580;2023-07-16T06:54:03;22.90;93.40
32787;DHT22;19139;49.372;8.580;2023-07-16T06:56:30;23.00;93.40
32787;DHT22;19139;49.372;8.580;2023-07-16T06:58:57;22.80;93.60
32787;DHT22;19139;49.372;8.580;2023-07-16T07:01:23;22.70;93.80
32787;DHT22;19139;49.372;8.580;2023-07-16T07:03:50;22.50;93.70
32787;DHT22;19139;49.372;8.580;2023-07-16T07:06:17;22.50;93.60
32787;DHT22;19139;49.372;8.580;2023-07-16T07:08:44;22.50;93.60
32787;DHT22;19139;49.372;8.580;2023-07-16T07:11:11;22.50;93.90
32787;DHT22;19139;49.372;8.580;2023-07-16T07:13:37;22.60;93.80
32787;DHT22;19139;49.372;8.580;2023-07-16T07:16:04;22.50;93.90
32787;DHT22;19139;49.372;8.580;2023-07-16T07:18:31;22.50;93.90
32787;DHT22;19139;49.372;8.580;2023-07-16T07:20:58;22.50;94.00
32787;DHT22;19139;49.372;8.580;2023-07-16T07:23:24;22.50;94.60
32787;DHT22;19139;49.372;8.580;2023-07-16T07:25:52;22.50;94.30
32787;DHT22;19139;49.372;8.580;2023-07-16T07:28:19;22.50;93.90
32787;DHT22;19139;49.372;8.580;2023-07-16T07:30:46;22.60;93.90
32787;DHT22;19139;49.372;8.580;2023-07-16T07:33:13;22.60;94.20
32787;DHT22;19139;49.372;8.580;2023-07-16T07:35:40;22.60;94.10
32787;DHT22;19139;49.372;8.580;2023-07-16T07:38:07;22.70;94.10
32787;DHT22;19139;49.372;8.580;2023-07-16T07:40:34;22.70;93.80
32787;DHT22;19139;49.372;8.580;2023-07-16T07:43:00;22.70;93.80
32787;DHT22;19139;49.372;8.580;2023-07-16T07:45:27;22.60;94.10
32787;DHT22;19139;49.372;8.580;2023-07-16T07:47:54;22.60;94.20
32787;DHT22;19139;49.372;8.580;2023-07-16T07:50:21;22.60;93.50
32787;DHT22;19139;49.372;8.580;2023-07-16T07:52:48;22.60;93.40
32787;DHT22;19139;49.372;8.580;2023-07-16T07:55:14;22.70;93.10
32787;DHT22;19139;49.372;8.580;2023-07-16T07:57:41;22.60;93.10
32787;DHT22;19139;49.372;8.580;2023-07-16T08:00:08;22.70;92.70
32787;DHT22;19139;49.372;8.580;2023-07-16T08:02:38;22.60;92.90
32787;DHT22;19139;49.372;8.580;2023-07-16T08:05:06;22.60;92.70
32787;DHT22;19139;49.372;8.580;2023-07-16T08:07:33;22.80;92.60
32787;DHT22;19139;49.372;8.580;2023-07-16T08:10:00;22.90;92.40
32787;DHT22;19139;49.372;8.580;2023-07-16T08:12:27;23.10;92.20
32787;DHT22;19139;49.372;8.580;2023-07-16T08:14:53;23.20;92.00
32787;DHT22;19139;49.372;8.580;2023-07-16T08:17:20;23.30;91.80
32787;DHT22;19139;49.372;8.580;2023-07-16T08:19:49;23.40;91.70
32787;DHT22;19139;49.372;8.580;2023-07-16T08:22:16;23.40;91.50
32787;DHT22;19139;49.372;8.580;2023-07-16T08:24:43;23.50;91.30
32787;DHT22;19139;49.372;8.580;2023-07-16T08:27:10;23.50;91.10
32787;DHT22;19139;49.372;8.580;2023-07-16T08:29:36;23.50;91.00
32787;DHT22;19139;49.372;8.580;2023-07-16T08:32:03;23.60;90.90
32787;DHT22;19139;49.372;8.580;2023-07-16T08:34:30;23.60;90.70
32787;DHT22;19139;49.372;8.580;2023-07-16T08:36:57;23.70;90.60
32787;DHT22;19139;49.372;8.580;2023-07-16T08:39:24;23.70;90.60
32787;DHT22;19139;49.372;8.580;2023-07-16T08:41:53;23.70;90.50
32787;DHT22;19139;49.372;8.580;2023-07-16T08:44:20;23.80;90.50
32787;DHT22;19139;49.372;8.580;2023-07-16T08:46:47;23.80;90.30
32787;DHT22;19139;49.372;8.580;2023-07-16T08:49:17;23.80;90.20
32787;DHT22;19139;49.372;8.580;2023-07-16T08:51:48;23.90;90.10
32787;DHT22;19139;49.372;8.580;2023-07-16T08:54:18;23.90;89.80
32787;DHT22;19139;49.372;8.580;2023-07-16T08:56:47;23.90;89.30
32787;DHT22;19139;49.372;8.580;2023-07-16T08:59:15;23.90;89.60
32787;DHT22;19139;49.372;8.580;2023-07-16T09:01:42;23.90;89.50
32787;DHT22;19139;49.372;8.580;2023-07-16T09:04:09;24.00;89.40
32787;DHT22;19139;49.372;8.580;2023-07-16T09:06:36;24.00;89.30
32787;DHT22;19139;49.372;8.580;2023-07-16T09:09:02;24.00;89.10
32787;DHT22;19139;49.372;8.580;2023-07-16T09:11:30;24.10;89.00
32787;DHT22;19139;49.372;8.580;2023-07-16T09:13:56;24.20;89.00
32787;DHT22;19139;49.372;8.580;2023-07-16T09:16:23;24.20;88.90
32787;DHT22;19139;49.372;8.580;2023-07-16T09:18:50;24.30;88.90
32787;DHT22;19139;49.372;8.580;2023-07-16T09:21:17;24.30;88.80
32787;DHT22;19139;49.372;8.580;2023-07-16T09:23:44;24.30;88.80
32787;DHT22;19139;49.372;8.580;2023-07-16T09:26:11;24.40;88.70
32787;DHT22;19139;49.372;8.580;2023-07-16T09:28:38;24.40;88.70
32787;DHT22;19139;49.372;8.580;2023-07-16T09:31:06;24.50;88.70
32787;DHT22;19139;49.372;8.580;2023-07-16T09:33:33;24.50;88.60
32787;DHT22;19139;49.372;8.580;2023-07-16T09:36:00;24.50;88.50
32787;DHT22;19139;49.372;8.580;2023-07-16T09:38:29;24.50;88.50
32787;DHT22;19139;49.372;8.580;2023-07-16T09:40:56;24.50;88.40
32787;DHT22;19139;49.372;8.580;2023-07-16T09:43:24;24.60;88.50
32787;DHT22;19139;49.372;8.580;2023-07-16T09:45:50;24.60;88.30
32787;DHT22;19139;49.372;8.580;2023-07-16T09:48:17;24.60;88.10
32787;DHT22;19139;49.372;8.580;2023-07-16T09:50:50;24.60;88.10
32787;DHT22;19139;49.372;8.580;2023-07-16T09:53:19;24.60;88.10
32787;DHT22;19139;49.372;8.580;2023-07-16T09:55:48;24.70;88.00
32787;DHT22;19139;49.372;8.580;2023-07-16T09:58:17;24.70;88.10
32787;DHT22;19139;49.372;8.580;2023-07-16T10:00:46;24.70;88.00
32787;DHT22;19139;49.372;8.580;2023-07-16T10:03:15;24.70;87.90
32787;DHT22;19139;49.372;8.580;2023-07-16T10:05:43;24.70;87.80
32787;DHT22;19139;49.372;8.580;2023-07-16T10:08:18;24.80;87.90
32787;DHT22;19139;49.372;8.580;2023-07-16T10:10:48;24.80;87.70
32787;DHT22;19139;49.372;8.580;2023-07-16T10:13:16;24.80;87.70
32787;DHT22;19139;49.372;8.580;2023-07-16T10:15:53;24.80;87.60
32787;DHT22;19139;49.372;8.580;2023-07-16T10:18:27;24.80;87.70
32787;DHT22;19139;49.372;8.580;2023-07-16T10:21:00;24.80;87.60
32787;DHT22;19139;49.372;8.580;2023-07-16T10:23:37;24.80;87.50
32787;DHT22;19139;49.372;8.580;2023-07-16T10:26:05;24.80;87.60
32787;DHT22;19139;49.372;8.580;2023-07-16T10:28:33;24.80;87.70
32787;DHT22;19139;49.372;8.580;2023-07-16T10:31:01;24.80;87.60
32787;DHT22;19139;49.372;8.580;2023-07-16T10:33:28;24.90;87.70
32787;DHT22;19139;49.372;8.580;2023-07-16T10:35:57;24.90;87.70
32787;DHT22;19139;49.372;8.580;2023-07-16T10:38:27;24.90;87.70
32787;DHT22;19139;49.372;8.580;2023-07-16T10:40:55;24.90;87.60
32787;DHT22;19139;49.372;8.580;2023-07-16T10:43:23;24.90;87.60
32787;DHT22;19139;49.372;8.580;2023-07-16T10:45:50;24.90;87.60
32787;DHT22;19139;49.372;8.580;2023-07-16T10:48:17;24.90;87.50
32787;DHT22;19139;49.372;8.580;2023-07-16T10:50:53;24.90;87.60
32787;DHT22;19139;49.372;8.580;2023-07-16T10:53:20;24.90;87.70
32787;DHT22;19139;49.372;8.580;2023-07-16T10:55:47;24.90;87.60
32787;DHT22;19139;49.372;8.580;2023-07-16T10:58:14;24.90;87.50
32787;DHT22;19139;49.372;8.580;2023-07-16T11:00:41;25.00;87.60
32787;DHT22;19139;49.372;8.580;2023-07-16T11:03:09;25.00;87.60
32787;DHT22;19139;49.372;8.580;2023-07-16T11:05:36;25.00;87.50
32787;DHT22;19139;49.372;8.580;2023-07-16T11:08:03;25.00;87.60
32787;DHT22;19139;49.372;8.580;2023-07-16T11:10:30;25.00;87.50
32787;DHT22;19139;49.372;8.580;2023-07-16T11:12:58;25.00;87.50
32787;DHT22;19139;49.372;8.580;2023-07-16T11:15:34;25.00;87.50
32787;DHT22;19139;49.372;8.580;2023-07-16T11:18:02;25.00;87.30
32787;DHT22;19139;49.372;8.580;2023-07-16T11:20:30;25.00;88.10
32787;DHT22;19139;49.372;8.580;2023-07-16T11:22:59;25.00;87.30
32787;DHT22;19139;49.372;8.580;2023-07-16T11:25:28;25.00;87.30
32787;DHT22;19139;49.372;8.580;2023-07-16T11:27:55;25.00;87.10
32787;DHT22;19139;49.372;8.580;2023-07-16T11:30:25;25.00;87.10
32787;DHT22;19139;49.372;8.580;2023-07-16T11:32:52;25.00;87.00
32787;DHT22;19139;49.372;8.580;2023-07-16T11:35:20;25.10;87.00
32787;DHT22;19139;49.372;8.580;2023-07-16T11:37:47;25.10;87.00
32787;DHT22;19139;49.372;8.580;2023-07-16T11:40:18;25.10;87.10
32787;DHT22;19139;49.372;8.580;2023-07-16T11:42:46;25.10;87.10
32787;DHT22;19139;49.372;8.580;2023-07-16T11:45:24;25.10;86.90
32787;DHT22;19139;49.372;8.580;2023-07-16T11:47:54;25.10;87.20
32787;DHT22;19139;49.372;8.580;2023-07-16T11:50:21;25.10;87.10
32787;DHT22;19139;49.372;8.580;2023-07-16T11:52:55;25.10;87.10
32787;DHT22;19139;49.372;8.580;2023-07-16T11:55:22;25.10;87.10
32787;DHT22;19139;49.372;8.580;2023-07-16T11:57:49;25.10;86.90
32787;DHT22;19139;49.372;8.580;2023-07-16T12:00:16;25.10;86.90
32787;DHT22;19139;49.372;8.580;2023-07-16T12:02:44;25.10;86.80
32787;DHT22;19139;49.372;8.580;2023-07-16T12:05:18;25.10;86.90
32787;DHT22;19139;49.372;8.580;2023-07-16T12:07:45;25.10;86.90
32787;DHT22;19139;49.372;8.580;2023-07-16T12:10:12;25.10;86.70
32787;DHT22;19139;49.372;8.580;2023-07-16T12:12:38;25.10;86.50
32787;DHT22;19139;49.372;8.580;2023-07-16T12:15:06;25.10;86.60
32787;DHT22;19139;49.372;8.580;2023-07-16T12:17:33;25.10;86.60
32787;DHT22;19139;49.372;8.580;2023-07-16T12:20:01;25.10;86.40
32787;DHT22;19139;49.372;8.580;2023-07-16T12:22:28;25.10;86.60
32787;DHT22;19139;49.372;8.580;2023-07-16T12:24:55;25.10;86.30
32787;DHT22;19139;49.372;8.580;2023-07-16T12:27:22;25.10;86.30
32787;DHT22;19139;49.372;8.580;2023-07-16T12:29:49;25.10;86.20
32787;DHT22;19139;49.372;8.580;2023-07-16T12:32:15;25.20;86.30
32787;DHT22;19139;49.372;8.580;2023-07-16T12:34:42;25.20;86.30
32787;DHT22;19139;49.372;8.580;2023-07-16T12:37:09;25.20;86.20
32787;DHT22;19139;49.372;8.580;2023-07-16T12:39:36;25.20;86.20
32787;DHT22;19139;49.372;8.580;2023-07-16T12:42:03;25.20;86.20
32787;DHT22;19139;49.372;8.580;2023-07-16T12:44:30;25.20;86.10
32787;DHT22;19139;49.372;8.580;2023-07-16T12:46:57;25.20;86.10
32787;DHT22;19139;49.372;8.580;2023-07-16T12:49:24;25.20;86.10
32787;DHT22;19139;49.372;8.580;2023-07-16T12:51:50;25.20;86.10
32787;DHT22;19139;49.372;8.580;2023-07-16T12:54:17;25.20;86.10
32787;DHT22;19139;49.372;8.580;2023-07-16T12:56:44;25.20;86.20
32787;DHT22;19139;49.372;8.580;2023-07-16T12:59:10;25.20;86.10
32787;DHT22;19139;49.372;8.580;2023-07-16T13:01:37;25.20;86.10
32787;DHT22;19139;49.372;8.580;2023-07-16T13:04:04;25.20;86.10
32787;DHT22;19139;49.372;8.580;2023-07-16T13:06:31;25.20;86.10
32787;DHT22;19139;49.372;8.580;2023-07-16T13:08:57;25.20;86.10
32787;DHT22;19139;49.372;8.580;2023-07-16T13:11:24;25.20;86.10
32787;DHT22;19139;49.372;8.580;2023-07-16T13:13:51;25.20;86.10
32787;DHT22;19139;49.372;8.580;2023-07-16T13:16:18;25.20;86.00
32787;DHT22;19139;49.372;8.580;2023-07-16T13:18:45;25.20;85.90
32787;DHT22;19139;49.372;8.580;2023-07-16T13:21:11;25.20;85.90
32787;DHT22;19139;49.372;8.580;2023-07-16T13:23:38;25.20;85.90
32787;DHT22;19139;49.372;8.580;2023-07-16T13:26:05;25.20;85.90
32787;DHT22;19139;49.372;8.580;2023-07-16T13:28:31;25.20;85.90
32787;DHT22;19139;49.372;8.580;2023-07-16T13:30:58;25.20;85.80
32787;DHT22;19139;49.372;8.580;2023-07-16T13:33:25;25.20;85.90
32787;DHT22;19139;49.372;8.580;2023-07-16T13:38:21;25.20;85.90
32787;DHT22;19139;49.372;8.580;2023-07-16T13:40:48;25.30;86.00
32787;DHT22;19139;49.372;8.580;2023-07-16T13:43:14;25.30;85.90
32787;DHT22;19139;49.372;8.580;2023-07-16T13:45:41;25.30;85.90
32787;DHT22;19139;49.372;8.580;2023-07-16T13:48:08;25.30;85.80
32787;DHT22;19139;49.372;8.580;2023-07-16T13:50:34;25.30;85.80
32787;DHT22;19139;49.372;8.580;2023-07-16T13:53:01;25.30;85.90
32787;DHT22;19139;49.372;8.580;2023-07-16T13:55:28;25.30;85.80
32787;DHT22;19139;49.372;8.580;2023-07-16T13:57:56;25.30;85.80
32787;DHT22;19139;49.372;8.580;2023-07-16T14:00:23;25.30;85.80
32787;DHT22;19139;49.372;8.580;2023-07-16T14:02:50;25.30;85.80
32787;DHT22;19139;49.372;8.580;2023-07-16T14:05:17;25.30;85.80
32787;DHT22;19139;49.372;8.580;2023-07-16T14:07:44;25.30;85.70
32787;DHT22;19139;49.372;8.580;2023-07-16T14:10:10;25.30;85.70
32787;DHT22;19139;49.372;8.580;2023-07-16T14:12:37;25.30;85.70
32787;DHT22;19139;49.372;8.580;2023-07-16T14:15:04;25.30;85.70
32787;DHT22;19139;49.372;8.580;2023-07-16T14:17:31;25.30;85.70
32787;DHT22;19139;49.372;8.580;2023-07-16T14:19:58;25.30;85.60
32787;DHT22;19139;49.372;8.580;2023-07-16T14:22:24;25.30;85.60
32787;DHT22;19139;49.372;8.580;2023-07-16T14:24:54;25.30;85.60
32787;DHT22;19139;49.372;8.580;2023-07-16T14:27:21;25.30;85.50
32787;DHT22;19139;49.372;8.580;2023-07-16T14:29:47;25.30;85.50
32787;DHT22;19139;49.372;8.580;2023-07-16T14:32:31;25.40;85.60
32787;DHT22;19139;49.372;8.580;2023-07-16T14:34:58;25.30;85.60
32787;DHT22;19139;49.372;8.580;2023-07-16T14:37:25;25.40;85.60
32787;DHT22;19139;49.372;8.580;2023-07-16T14:39:52;25.40;85.50
32787;DHT22;19139;49.372;8.580;2023-07-16T14:42:18;25.40;85.40
32787;DHT22;19139;49.372;8.580;2023-07-16T14:44:45;25.40;85.40
32787;DHT22;19139;49.372;8.580;2023-07-16T14:47:12;25.40;85.30
32787;DHT22;19139;49.372;8.580;2023-07-16T14:49:38;25.40;85.40
32787;DHT22;19139;49.372;8.580;2023-07-16T14:52:05;25.40;85.40
32787;DHT22;19139;49.372;8.580;2023-07-16T14:54:32;25.40;85.40
32787;DHT22;19139;49.372;8.580;2023-07-16T14:57:00;25.40;85.30
32787;DHT22;19139;49.372;8.580;2023-07-16T14:59:27;25.40;85.30
32787;DHT22;19139;49.372;8.580;2023-07-16T15:01:54;25.40;85.30
32787;DHT22;19139;49.372;8.580;2023-07-16T15:04:20;25.40;85.20
32787;DHT22;19139;49.372;8.580;2023-07-16T15:06:47;25.40;85.20
32787;DHT22;19139;49.372;8.580;2023-07-16T15:09:14;25.40;85.20
32787;DHT22;19139;49.372;8.580;2023-07-16T15:11:41;25.40;85.10
32787;DHT22;19139;49.372;8.580;2023-07-16T15:14:08;25.40;85.00
32787;DHT22;19139;49.372;8.580;2023-07-16T15:16:38;25.40;85.00
32787;DHT22;19139;49.372;8.580;2023-07-16T15:19:05;25.40;85.10
32787;DHT22;19139;49.372;8.580;2023-07-16T15:21:31;25.40;85.00
32787;DHT22;19139;49.372;8.580;2023-07-16T15:23:58;25.40;84.90
32787;DHT22;19139;49.372;8.580;2023-07-16T15:26:25;25.40;84.90
32787;DHT22;19139;49.372;8.580;2023-07-16T15:28:53;25.40;85.00
32787;DHT22;19139;49.372;8.580;2023-07-16T15:31:20;25.40;84.90
32787;DHT22;19139;49.372;8.580;2023-07-16T15:33:54;25.40;85.00
32787;DHT22;19139;49.372;8.580;2023-07-16T15:36:22;25.40;84.90